Time;durP1;ratioP1;P1;durP2;ratioP2;P2;SDS_P1;SDS_P2;PMS_P1;PMS_P2;Temp;Humidity;BMP_temperature;BMP_pressure;BME280_temperature;BME280_humidity;BME280_pressure;Samples;Min_cycle;Max_cycle;Signal;HPM_P1;HPM_P2
2023/12/07 00:02:28;;;;;;;52.45;29.40;;;;;;;1.80;88.90;99307.94;4992704;28;20069;-83
2023/12/07 00:05:13;;;;;;;53.10;29.90;;;;;;;1.80;89.09;99302.69;5006309;28;20040;-82
2023/12/07 00:07:59;;;;;;;59.20;30.33;;;;;;;1.83;89.89;99311.03;4992349;28;20052;-82
2023/12/07 00:10:48;;;;;;;48.17;27.20;;;;;;;1.86;89.36;99312.50;5013775;28;20060;-83
2023/12/07 00:13:34;;;;;;;46.58;23.30;;;;;;;1.77;89.54;99301.25;5006305;28;20053;-82
2023/12/07 00:16:20;;;;;;;56.78;27.48;;;;;;;1.82;89.52;99313.84;5014027;28;20065;-84
2023/12/07 00:19:05;;;;;;;46.70;26.58;;;;;;;1.67;89.75;99310.31;5005512;28;20053;-84
2023/12/07 00:21:51;;;;;;;44.25;25.27;;;;;;;1.72;90.43;99319.25;5019251;28;20052;-86
2023/12/07 00:24:37;;;;;;;43.22;25.88;;;;;;;1.66;90.07;99303.41;5025662;28;20052;-85
2023/12/07 00:27:22;;;;;;;47.35;26.13;;;;;;;1.64;89.76;99293.13;5019335;28;20049;-87
2023/12/07 00:30:08;;;;;;;41.33;23.40;;;;;;;1.73;89.71;99310.44;5005757;28;20055;-83
2023/12/07 00:32:55;;;;;;;40.05;24.23;;;;;;;1.74;89.78;99309.44;5006097;28;20048;-84
2023/12/07 00:35:41;;;;;;;45.80;26.05;;;;;;;1.67;89.84;99298.00;5005998;28;20045;-84
2023/12/07 00:38:26;;;;;;;49.95;27.55;;;;;;;1.80;90.15;99313.19;4992155;28;20065;-83
2023/12/07 00:41:12;;;;;;;44.85;25.58;;;;;;;1.72;89.88;99319.25;5013990;28;20057;-85
2023/12/07 00:44:01;;;;;;;47.53;26.17;;;;;;;1.69;90.65;99309.13;5013790;28;20399;-84
2023/12/07 00:46:47;;;;;;;52.80;27.17;;;;;;;1.70;90.56;99316.00;5013740;28;20045;-83
2023/12/07 00:49:31;;;;;;;50.47;26.58;;;;;;;1.61;90.17;99312.59;5027832;28;20396;-83
2023/12/07 00:52:18;;;;;;;52.70;27.58;;;;;;;1.68;90.29;99317.97;5016743;28;20049;-84
2023/12/07 00:55:04;;;;;;;46.08;25.58;;;;;;;1.67;90.20;99321.59;5023772;28;20065;-85
2023/12/07 00:57:49;;;;;;;49.95;26.75;;;;;;;1.72;90.28;99331.56;5023178;28;20411;-85
2023/12/07 01:00:37;;;;;;;46.90;24.88;;;;;;;1.73;90.18;99325.34;5016412;28;20060;-85
2023/12/07 01:03:25;;;;;;;46.97;25.13;;;;;;;1.75;90.45;99334.63;5009800;28;20053;-83
2023/12/07 01:06:11;;;;;;;44.60;25.90;;;;;;;1.68;90.30;99325.84;5016700;28;20518;-84
2023/12/07 01:09:00;;;;;;;48.45;25.00;;;;;;;1.73;89.95;99341.88;5023296;28;20243;-82
2023/12/07 01:11:47;;;;;;;45.70;25.00;;;;;;;1.70;90.63;99330.94;5016270;28;20404;-83
2023/12/07 01:14:34;;;;;;;52.22;25.23;;;;;;;1.67;89.90;99326.03;5016386;28;20061;-83
2023/12/07 01:17:19;;;;;;;56.03;26.83;;;;;;;1.65;90.61;99323.56;5016921;28;20053;-85
2023/12/07 01:20:11;;;;;;;56.15;26.67;;;;;;;1.67;89.98;99326.84;5022943;28;20060;-84
2023/12/07 01:22:56;;;;;;;50.35;26.33;;;;;;;1.59;90.04;99319.81;5016494;28;20049;-84
2023/12/07 01:25:42;;;;;;;52.78;27.02;;;;;;;1.70;90.75;99336.97;5017190;28;20105;-82
2023/12/07 01:28:29;;;;;;;51.55;26.88;;;;;;;1.74;90.53;99350.56;5016168;28;20053;-84
2023/12/07 01:31:16;;;;;;;48.40;27.27;;;;;;;1.77;90.51;99345.78;5009422;28;20056;-84
2023/12/07 01:34:03;;;;;;;47.03;25.98;;;;;;;1.80;91.14;99337.59;5008175;28;20052;-83
2023/12/07 01:36:49;;;;;;;47.55;25.25;;;;;;;1.72;90.20;99316.63;5015885;28;20049;-82
2023/12/07 01:39:35;;;;;;;48.47;25.33;;;;;;;1.68;89.90;99319.78;5015794;28;20072;-85
2023/12/07 01:42:24;;;;;;;44.95;21.88;;;;;;;1.58;89.92;99310.31;5015873;28;20507;-85
2023/12/07 01:45:12;;;;;;;44.42;23.23;;;;;;;1.67;90.14;99318.16;5021356;28;20056;-83
2023/12/07 01:47:59;;;;;;;41.63;23.52;;;;;;;1.61;90.21;99322.28;5021186;28;20431;-83
2023/12/07 01:50:46;;;;;;;43.97;24.83;;;;;;;1.68;89.81;99330.25;5001001;28;20403;-83
2023/12/07 01:53:33;;;;;;;40.78;23.52;;;;;;;1.71;90.99;99327.31;4994184;28;20052;-83
2023/12/07 01:56:23;;;;;;;44.03;23.70;;;;;;;1.68;90.34;99322.41;5014901;28;20049;-83
2023/12/07 01:59:12;;;;;;;42.08;24.45;;;;;;;1.71;90.55;99329.94;4991662;28;20415;-84
2023/12/07 02:01:58;;;;;;;43.40;23.17;;;;;;;1.73;90.80;99333.22;5014319;28;20057;-83
2023/12/07 02:04:47;;;;;;;42.15;22.95;;;;;;;1.67;90.81;99329.44;5015381;28;20056;-83
2023/12/07 02:07:43;;;;;;;41.72;23.15;;;;;;;1.65;90.38;99323.56;5014827;28;20053;-84
2023/12/07 02:10:30;;;;;;;43.35;23.17;;;;;;;1.69;90.76;99331.88;5007136;28;20077;-85
2023/12/07 02:13:17;;;;;;;43.90;24.45;;;;;;;1.66;90.78;99333.06;5021225;28;20049;-82
2023/12/07 02:16:27;;;;;;;42.28;23.35;;;;;;;1.65;90.27;99327.97;5007131;28;20507;-81
2023/12/07 02:19:32;;;;;;;46.53;23.75;;;;;;;1.67;90.89;99332.06;5020810;28;20057;-81
2023/12/07 02:22:33;;;;;;;42.88;24.17;;;;;;;1.64;91.07;99332.41;5020771;28;20519;-82
2023/12/07 02:25:19;;;;;;;48.30;25.33;;;;;;;1.69;91.76;99330.09;5021066;28;20048;-86
2023/12/07 02:28:07;;;;;;;42.50;22.48;;;;;;;1.63;91.15;99330.78;5020955;28;20061;-84
2023/12/07 02:30:59;;;;;;;43.50;24.40;;;;;;;1.66;90.92;99327.00;5006886;28;20057;-82
2023/12/07 02:33:50;;;;;;;44.30;24.13;;;;;;;1.57;91.00;99315.75;5006482;28;20056;-82
2023/12/07 02:36:39;;;;;;;38.75;23.75;;;;;;;1.72;91.19;99334.16;5020944;28;20514;-85
2023/12/07 02:39:25;;;;;;;44.83;24.75;;;;;;;1.74;91.46;99334.81;5020560;28;20049;-83
2023/12/07 02:42:11;;;;;;;45.80;24.83;;;;;;;1.66;91.27;99327.84;5014510;28;20045;-82
2023/12/07 02:44:56;;;;;;;44.05;24.17;;;;;;;1.72;91.14;99345.47;5013498;28;20107;-83
2023/12/07 02:47:45;;;;;;;44.08;24.35;;;;;;;1.61;91.58;99333.56;4998814;28;20392;-84
2023/12/07 02:50:30;;;;;;;40.67;23.70;;;;;;;1.70;91.56;99352.69;5006402;28;20053;-84
2023/12/07 02:53:15;;;;;;;43.65;25.05;;;;;;;1.61;91.50;99349.28;5027458;28;20045;-84
2023/12/07 02:56:01;;;;;;;45.83;23.80;;;;;;;1.58;91.73;99347.00;4999527;28;20510;-84
2023/12/07 02:58:46;;;;;;;46.15;24.55;;;;;;;1.64;91.99;99366.47;5004567;28;20400;-85
2023/12/07 03:01:32;;;;;;;47.15;24.98;;;;;;;1.60;91.90;99358.13;5004909;28;20045;-84
2023/12/07 03:04:17;;;;;;;41.13;25.25;;;;;;;1.57;92.22;99349.81;5005916;28;20052;-84
2023/12/07 03:07:04;;;;;;;46.10;24.73;;;;;;;1.56;91.40;99358.63;4992500;28;20065;-85
2023/12/07 03:09:50;;;;;;;46.20;24.73;;;;;;;1.66;91.89;99371.53;5019354;28;20053;-83
2023/12/07 03:12:35;;;;;;;55.40;29.13;;;;;;;1.63;92.77;99370.09;5004991;28;20053;-86
2023/12/07 03:15:21;;;;;;;42.70;24.73;;;;;;;1.57;92.75;99362.91;5005345;28;20052;-85
2023/12/07 03:18:07;;;;;;;47.90;26.63;;;;;;;1.66;91.88;99374.16;5005697;28;20053;-85
2023/12/07 03:20:52;;;;;;;50.88;27.13;;;;;;;1.64;92.18;99374.31;5006004;28;20045;-85
2023/12/07 03:23:38;;;;;;;45.80;25.20;;;;;;;1.60;92.31;99367.81;5005376;28;20060;-84
2023/12/07 03:26:23;;;;;;;46.60;26.00;;;;;;;1.63;92.21;99377.94;5005797;28;20064;-86
2023/12/07 03:29:11;;;;;;;49.75;27.73;;;;;;;1.64;92.10;99384.00;5005633;28;20060;-84
2023/12/07 03:31:56;;;;;;;43.67;23.90;;;;;;;1.62;92.89;99377.09;5005717;28;20057;-86
2023/12/07 03:34:41;;;;;;;31.88;17.75;;;;;;;1.48;92.23;99359.47;4999025;28;20507;-85
2023/12/07 03:37:26;;;;;;;46.05;23.90;;;;;;;1.45;92.66;99364.22;4999716;28;20056;-84
2023/12/07 03:40:12;;;;;;;42.50;24.60;;;;;;;1.58;92.08;99385.47;4999910;28;20050;-85
2023/12/07 03:42:58;;;;;;;41.00;23.30;;;;;;;1.61;92.06;99374.66;5009306;28;20045;-84
2023/12/07 03:45:43;;;;;;;39.88;22.33;;;;;;;1.53;91.45;99377.28;4996097;28;20072;-83
2023/12/07 03:48:29;;;;;;;33.97;20.48;;;;;;;1.66;91.36;99393.31;5026247;28;20060;-84
2023/12/07 03:51:16;;;;;;;36.47;20.83;;;;;;;1.69;90.85;99392.16;5026229;28;20049;-85
2023/12/07 03:54:01;;;;;;;34.30;19.98;;;;;;;1.67;90.80;99387.09;5023655;28;20044;-86
2023/12/07 03:56:46;;;;;;;34.50;20.33;;;;;;;1.70;90.73;99404.28;5019444;28;20049;-85
2023/12/07 03:59:36;;;;;;;36.00;19.05;;;;;;;1.69;91.03;99403.44;5003104;28;20065;-84
2023/12/07 04:02:22;;;;;;;30.77;18.98;;;;;;;1.72;91.18;99400.47;5006373;28;20408;-83
2023/12/07 04:05:08;;;;;;;30.48;18.15;;;;;;;1.71;90.90;99396.25;5013412;28;20438;-83
2023/12/07 04:07:54;;;;;;;25.98;17.27;;;;;;;1.70;90.36;99407.72;5019830;28;20057;-84
2023/12/07 04:10:40;;;;;;;29.10;16.52;;;;;;;1.64;89.98;99399.72;5013275;28;20049;-82
2023/12/07 04:13:25;;;;;;;31.23;17.77;;;;;;;1.59;89.99;99387.91;5013989;28;20073;-82
2023/12/07 04:16:11;;;;;;;33.17;18.95;;;;;;;1.65;90.14;99406.56;5013875;28;20356;-82
2023/12/07 04:18:57;;;;;;;35.45;21.05;;;;;;;1.64;90.28;99400.53;4999158;28;20052;-82
2023/12/07 04:21:42;;;;;;;36.97;22.45;;;;;;;1.54;90.64;99399.91;5014069;28;20057;-82
2023/12/07 04:24:29;;;;;;;48.20;26.02;;;;;;;1.53;91.70;99401.69;5025723;28;20534;-83
2023/12/07 04:27:15;;;;;;;46.30;25.90;;;;;;;1.57;91.58;99410.06;5013907;28;20049;-83
2023/12/07 04:30:01;;;;;;;47.55;26.35;;;;;;;1.50;91.72;99399.41;5014001;28;20499;-82
2023/12/07 04:32:46;;;;;;;43.47;25.00;;;;;;;1.52;92.17;99412.34;5013855;28;20049;-84
2023/12/07 04:35:34;;;;;;;41.90;23.75;;;;;;;1.53;91.50;99411.34;5013795;28;20057;-85
2023/12/07 04:38:20;;;;;;;45.45;23.77;;;;;;;1.59;91.87;99421.16;5019563;28;20125;-85
2023/12/07 04:41:06;;;;;;;40.67;22.20;;;;;;;1.59;90.99;99423.78;5019840;28;20065;-85
2023/12/07 04:43:53;;;;;;;36.38;21.25;;;;;;;1.59;91.63;99424.59;5019715;28;20057;-85
2023/12/07 04:46:39;;;;;;;37.72;22.05;;;;;;;1.49;92.11;99417.91;5012188;28;20065;-85
2023/12/07 04:49:24;;;;;;;40.47;21.90;;;;;;;1.49;91.63;99428.38;5013275;28;20056;-85
2023/12/07 04:52:10;;;;;;;39.40;22.38;;;;;;;1.42;91.60;99424.81;5026319;28;20036;-82
2023/12/07 04:54:56;;;;;;;34.15;19.65;;;;;;;1.55;91.28;99443.44;5019176;28;20048;-83
2023/12/07 04:57:42;;;;;;;35.33;20.73;;;;;;;1.52;91.46;99447.19;5004971;28;20052;-82
2023/12/07 05:00:30;;;;;;;37.08;20.38;;;;;;;1.57;91.65;99446.72;4999105;28;20088;-85
2023/12/07 05:03:16;;;;;;;35.97;20.52;;;;;;;1.55;91.09;99438.19;5004902;28;20057;-86
2023/12/07 05:06:01;;;;;;;36.35;20.85;;;;;;;1.62;91.21;99450.44;4999007;28;20053;-84
2023/12/07 05:08:47;;;;;;;38.10;20.63;;;;;;;1.56;90.81;99437.22;5005285;28;20061;-84
2023/12/07 05:11:34;;;;;;;35.75;20.38;;;;;;;1.66;90.74;99452.75;5005436;28;20052;-86
2023/12/07 05:14:19;;;;;;;46.40;25.50;;;;;;;1.65;90.94;99456.34;5012438;28;20049;-83
2023/12/07 05:17:05;;;;;;;49.13;25.20;;;;;;;1.62;90.95;99460.13;5005174;28;20057;-85
2023/12/07 05:19:50;;;;;;;47.03;25.88;;;;;;;1.61;92.04;99448.81;5005784;28;20050;-86
2023/12/07 05:22:36;;;;;;;42.63;24.98;;;;;;;1.66;91.36;99456.22;5012379;28;20049;-84
2023/12/07 05:25:21;;;;;;;38.70;22.17;;;;;;;1.53;91.59;99446.22;5012668;28;20065;-85
2023/12/07 05:28:07;;;;;;;40.90;24.60;;;;;;;1.66;91.60;99461.44;5020875;28;20056;-83
2023/12/07 05:30:53;;;;;;;61.80;28.70;;;;;;;1.52;91.07;99439.34;5020415;28;20053;-83
2023/12/07 05:33:38;;;;;;;66.80;31.70;;;;;;;1.63;91.70;99469.63;5020829;28;20045;-83
2023/12/07 05:36:24;;;;;;;125.13;43.25;;;;;;;1.59;91.69;99461.25;5036764;28;20395;-86
2023/12/07 05:39:11;;;;;;;83.43;44.50;;;;;;;1.60;91.84;99467.34;5020989;28;20148;-83
2023/12/07 05:41:57;;;;;;;51.83;29.92;;;;;;;1.56;90.35;99460.78;5035700;28;20061;-85
2023/12/07 05:44:42;;;;;;;53.78;27.70;;;;;;;1.49;90.97;99452.78;5008675;28;20049;-87
2023/12/07 05:47:28;;;;;;;44.67;25.40;;;;;;;1.56;90.31;99479.13;4994750;28;20057;-85
2023/12/07 05:50:14;;;;;;;41.97;22.80;;;;;;;1.51;90.82;99473.56;5008638;28;20052;-85
2023/12/07 05:52:59;;;;;;;33.40;19.33;;;;;;;1.53;90.94;99484.69;5008268;28;20058;-85
2023/12/07 05:55:45;;;;;;;28.15;17.40;;;;;;;1.51;90.62;99481.44;5008126;28;20053;-86
2023/12/07 05:58:30;;;;;;;34.30;19.10;;;;;;;1.49;90.10;99475.53;5007637;28;20065;-86
2023/12/07 06:01:17;;;;;;;36.80;19.63;;;;;;;1.48;90.23;99481.75;5008474;28;20507;-85
2023/12/07 06:04:02;;;;;;;47.90;26.05;;;;;;;1.50;90.76;99485.84;5007889;28;20428;-84
2023/12/07 06:06:48;;;;;;;56.22;29.13;;;;;;;1.46;90.56;99476.69;5007878;28;20077;-85
2023/12/07 06:09:34;;;;;;;53.88;27.90;;;;;;;1.50;90.39;99491.06;5007585;28;20061;-85
2023/12/07 06:12:21;;;;;;;71.72;32.40;;;;;;;1.50;90.71;99493.69;5006291;28;20056;-84
2023/12/07 06:15:07;;;;;;;80.22;35.47;;;;;;;1.51;91.38;99499.78;5006592;28;20269;-84
2023/12/07 06:17:54;;;;;;;73.97;32.75;;;;;;;1.47;91.81;99490.59;5006953;28;20053;-84
2023/12/07 06:20:43;;;;;;;71.38;33.58;;;;;;;1.50;90.85;99498.13;4993775;28;20072;-85
2023/12/07 06:23:28;;;;;;;68.90;32.28;;;;;;;1.50;91.20;99498.13;5007858;28;20061;-85
2023/12/07 06:26:14;;;;;;;71.32;33.75;;;;;;;1.49;91.19;99506.97;5014818;28;20057;-84
2023/12/07 06:29:00;;;;;;;45.92;25.25;;;;;;;1.47;91.09;99503.69;5007824;28;20076;-84
2023/12/07 06:31:45;;;;;;;33.80;20.40;;;;;;;1.47;90.99;99508.91;5007594;28;20128;-82
2023/12/07 06:34:31;;;;;;;42.33;21.98;;;;;;;1.48;91.01;99513.19;5015165;28;20061;-83
2023/12/07 06:37:17;;;;;;;41.92;23.15;;;;;;;1.52;91.52;99512.69;5015820;28;20396;-84
2023/12/07 06:40:04;;;;;;;41.58;23.88;;;;;;;1.52;91.07;99514.50;4996658;28;20061;-84
2023/12/07 06:42:49;;;;;;;42.20;24.38;;;;;;;1.53;91.32;99511.69;5016803;28;20049;-84
2023/12/07 06:45:35;;;;;;;36.38;20.27;;;;;;;1.59;91.00;99518.09;5015918;28;20068;-82
2023/12/07 06:48:21;;;;;;;54.05;32.03;;;;;;;1.58;90.34;99519.06;5027882;28;20053;-83
2023/12/07 06:51:07;;;;;;;44.90;26.92;;;;;;;1.59;90.88;99528.56;5022074;28;20045;-82
2023/12/07 06:53:52;;;;;;;45.55;24.48;;;;;;;1.61;90.42;99526.59;5015920;28;20045;-83
2023/12/07 06:56:39;;;;;;;38.92;22.70;;;;;;;1.68;90.63;99530.19;5014704;28;20510;-83
2023/12/07 06:59:24;;;;;;;39.42;23.52;;;;;;;1.68;90.57;99540.69;5014467;28;20424;-82
2023/12/07 07:02:10;;;;;;;41.80;24.33;;;;;;;1.70;90.13;99530.88;5016446;28;20459;-83
2023/12/07 07:04:55;;;;;;;37.22;22.23;;;;;;;1.74;90.50;99542.66;5023046;28;20053;-83
2023/12/07 07:07:41;;;;;;;35.70;21.60;;;;;;;1.73;90.22;99541.00;5015310;28;20049;-83
2023/12/07 07:10:29;;;;;;;40.90;24.08;;;;;;;1.72;90.80;99544.59;5015167;28;20053;-82
2023/12/07 07:13:16;;;;;;;39.42;23.23;;;;;;;1.73;89.52;99546.25;5017144;28;20049;-83
2023/12/07 07:16:01;;;;;;;44.10;25.52;;;;;;;1.75;89.47;99538.22;5017112;28;20048;-82
2023/12/07 07:18:48;;;;;;;37.25;22.30;;;;;;;1.75;89.45;99546.06;5036512;28;20052;-83
2023/12/07 07:21:34;;;;;;;45.63;25.73;;;;;;;1.73;89.48;99546.25;5015197;28;20049;-83
2023/12/07 07:24:19;;;;;;;49.63;28.05;;;;;;;1.83;89.94;99554.75;5020649;28;20052;-82
2023/12/07 07:27:05;;;;;;;73.18;37.08;;;;;;;1.92;89.59;99557.38;5015060;28;20391;-83
2023/12/07 07:29:51;;;;;;;78.03;39.50;;;;;;;1.92;90.22;99560.81;5027568;28;20108;-82
2023/12/07 07:32:36;;;;;;;62.30;35.45;;;;;;;1.94;89.41;99555.41;5013797;28;20061;-83
2023/12/07 07:35:23;;;;;;;61.03;33.10;;;;;;;1.93;89.71;99556.38;5014737;28;20049;-83
2023/12/07 07:38:08;;;;;;;52.25;30.30;;;;;;;2.05;89.37;99561.13;5021811;28;20061;-83
2023/12/07 07:40:54;;;;;;;59.45;33.20;;;;;;;2.02;88.98;99561.44;5014735;28;20048;-83
2023/12/07 07:43:40;;;;;;;58.60;31.90;;;;;;;2.15;88.90;99566.19;5014831;28;20053;-83
2023/12/07 07:46:25;;;;;;;56.25;33.38;;;;;;;2.26;89.11;99565.84;5014503;28;20049;-84
2023/12/07 07:49:11;;;;;;;66.43;35.90;;;;;;;2.28;88.64;99555.97;5014931;28;20048;-84
2023/12/07 07:51:58;;;;;;;71.05;37.50;;;;;;;2.33;88.62;99568.59;5014991;28;20060;-83
2023/12/07 07:54:43;;;;;;;80.90;42.17;;;;;;;2.22;87.95;99572.38;5020546;28;20052;-84
2023/12/07 07:57:30;;;;;;;93.00;44.20;;;;;;;2.36;87.91;99575.34;5020171;28;20053;-83
2023/12/07 08:00:15;;;;;;;86.88;43.42;;;;;;;2.35;88.04;99581.53;4999797;28;20053;-84
2023/12/07 08:03:02;;;;;;;63.00;34.97;;;;;;;2.39;87.15;99572.38;5019951;28;20069;-83
2023/12/07 08:05:48;;;;;;;56.97;30.10;;;;;;;2.24;87.74;99569.63;5014569;28;20053;-84
2023/12/07 08:08:35;;;;;;;51.35;27.85;;;;;;;2.24;87.91;99585.34;5013875;28;20045;-83
2023/12/07 08:11:21;;;;;;;70.50;34.70;;;;;;;2.16;87.91;99578.28;5020429;28;20052;-84
2023/12/07 08:14:06;;;;;;;68.47;35.85;;;;;;;2.15;88.70;99576.66;5013893;28;20396;-83
2023/12/07 08:16:51;;;;;;;63.67;34.33;;;;;;;2.15;89.43;99583.72;4998593;28;20048;-83
2023/12/07 08:19:38;;;;;;;60.67;32.67;;;;;;;2.13;89.07;99583.91;5032726;28;20049;-83
2023/12/07 08:22:23;;;;;;;79.35;40.17;;;;;;;2.05;89.64;99576.03;5012078;28;20049;-84
2023/12/07 08:25:10;;;;;;;81.72;42.83;;;;;;;2.18;89.43;99586.00;5013151;28;20057;-83
2023/12/07 08:27:56;;;;;;;76.53;38.70;;;;;;;2.17;89.76;99577.34;5018799;28;20056;-85
2023/12/07 08:30:46;;;;;;;72.50;40.63;;;;;;;2.30;89.51;99601.22;5012073;28;20069;-85
2023/12/07 08:33:31;;;;;;;84.63;43.25;;;;;;;2.35;89.27;99600.75;5004434;28;20403;-85
2023/12/07 08:36:17;;;;;;;87.50;44.35;;;;;;;2.30;89.22;99605.66;4991088;28;20045;-86
2023/12/07 08:39:02;;;;;;;108.18;49.35;;;;;;;2.39;90.30;99609.91;5011815;28;20072;-85
2023/12/07 08:41:49;;;;;;;95.95;48.03;;;;;;;2.37;90.38;99606.63;4998488;28;20554;-86
2023/12/07 08:44:35;;;;;;;84.28;44.05;;;;;;;2.45;89.95;99614.50;5019175;28;20049;-84
2023/12/07 08:47:21;;;;;;;76.82;41.50;;;;;;;2.45;89.58;99613.69;5019202;28;20060;-84
2023/12/07 08:50:10;;;;;;;70.28;40.30;;;;;;;2.47;89.70;99612.50;5026328;28;20395;-85
2023/12/07 08:52:56;;;;;;;62.25;35.38;;;;;;;2.42;89.64;99614.81;5004840;28;20041;-85
2023/12/07 08:55:41;;;;;;;72.97;38.40;;;;;;;2.44;89.76;99620.69;5018672;28;20056;-84
2023/12/07 08:58:26;;;;;;;63.67;36.72;;;;;;;2.34;90.26;99604.34;4998025;28;20052;-84
2023/12/07 09:01:13;;;;;;;69.28;39.17;;;;;;;2.54;90.20;99629.22;4991292;28;20056;-85
2023/12/07 09:04:01;;;;;;;69.40;38.00;;;;;;;2.52;89.95;99622.50;5032347;28;20061;-84
2023/12/07 09:06:46;;;;;;;65.55;36.35;;;;;;;2.53;89.22;99618.88;5026661;28;20053;-85
2023/12/07 09:09:32;;;;;;;55.22;31.75;;;;;;;2.64;89.80;99630.84;5017729;28;20049;-84
2023/12/07 09:12:18;;;;;;;64.95;37.90;;;;;;;2.51;89.08;99640.06;5019611;28;20048;-85
2023/12/07 09:15:09;;;;;;;79.88;39.60;;;;;;;2.58;88.60;99628.88;5017051;28;20053;-84
2023/12/07 09:17:56;;;;;;;71.13;36.83;;;;;;;2.52;89.83;99625.94;5018250;28;20052;-85
2023/12/07 09:20:47;;;;;;;80.90;41.15;;;;;;;2.54;88.77;99628.41;5016164;28;20053;-85
2023/12/07 09:23:33;;;;;;;67.55;35.55;;;;;;;2.49;89.57;99630.72;5016152;28;20052;-86
2023/12/07 09:26:19;;;;;;;65.32;35.63;;;;;;;2.32;89.62;99616.81;5008440;28;20064;-83
2023/12/07 09:29:05;;;;;;;60.88;34.92;;;;;;;2.30;89.06;99616.16;5022193;28;20415;-85
2023/12/07 09:31:50;;;;;;;65.05;35.60;;;;;;;2.33;89.50;99620.25;5016861;28;20064;-85
2023/12/07 09:34:36;;;;;;;64.57;36.28;;;;;;;2.17;89.03;99608.00;5016877;28;20060;-85
2023/12/07 09:37:22;;;;;;;63.10;32.70;;;;;;;2.20;90.27;99621.59;5014578;28;20048;-78
2023/12/07 09:40:30;;;;;;;61.63;31.45;;;;;;;2.22;89.42;99614.34;5016297;28;20060;-82
2023/12/07 09:43:17;;;;;;;59.15;30.88;;;;;;;2.24;90.31;99604.53;5018422;28;20040;-78
2023/12/07 09:46:03;;;;;;;63.22;30.98;;;;;;;2.21;90.07;99594.34;5017855;28;20121;-79
2023/12/07 09:48:49;;;;;;;41.47;20.25;;;;;;;2.18;89.46;99602.56;5015295;28;20510;-81
2023/12/07 09:51:36;;;;;;;67.45;35.83;;;;;;;2.20;89.64;99592.72;5016078;28;20057;-80
2023/12/07 09:54:25;;;;;;;60.00;30.98;;;;;;;2.21;89.95;99586.50;5015756;28;20049;-79
2023/12/07 09:57:10;;;;;;;88.40;39.53;;;;;;;2.23;90.96;99595.03;5015246;28;20045;-79
2023/12/07 09:59:56;;;;;;;67.80;35.63;;;;;;;2.15;90.76;99581.91;5015362;28;20057;-78
2023/12/07 10:02:42;;;;;;;69.93;36.15;;;;;;;2.25;91.13;99597.47;5016334;28;20053;-78
2023/12/07 10:05:27;;;;;;;74.60;33.67;;;;;;;2.23;90.61;99589.78;5015690;28;20057;-78
2023/12/07 10:08:28;;;;;;;34.90;19.02;;;;;;;2.22;90.33;99603.84;5014908;28;20502;-78
2023/12/07 10:11:13;;;;;;;66.68;32.85;;;;;;;2.16;89.89;99599.28;5015193;28;20109;-81
2023/12/07 10:13:59;;;;;;;36.90;16.48;;;;;;;2.13;90.18;99597.00;5022524;28;20040;-78
2023/12/07 10:16:57;;;;;;;23.70;12.02;;;;;;;2.06;90.13;99596.84;5016686;28;20062;-77
2023/12/07 10:19:44;;;;;;;56.97;31.23;;;;;;;2.10;90.12;99599.97;5016544;28;20096;-78
2023/12/07 10:22:31;;;;;;;36.40;18.30;;;;;;;2.17;90.50;99594.88;5023020;28;20053;-77
2023/12/07 10:25:21;;;;;;;28.92;16.35;;;;;;;2.08;90.77;99565.22;5017493;28;20045;-79
2023/12/07 10:28:07;;;;;;;57.63;30.65;;;;;;;2.25;90.55;99572.06;5018845;28;20044;-77
2023/12/07 10:30:53;;;;;;;45.50;25.45;;;;;;;2.24;90.34;99567.81;5018412;28;20045;-78
2023/12/07 10:33:38;;;;;;;72.18;34.35;;;;;;;2.34;90.71;99582.53;5016415;28;20056;-79
2023/12/07 10:36:23;;;;;;;78.50;37.28;;;;;;;2.38;90.65;99566.28;5028953;28;20049;-77
2023/12/07 10:39:11;;;;;;;62.75;30.58;;;;;;;2.52;90.43;99572.66;5015796;28;20056;-79
2023/12/07 10:42:01;;;;;;;57.17;29.98;;;;;;;2.55;89.84;99569.69;5035478;28;20056;-80
2023/12/07 10:44:58;;;;;;;64.53;32.13;;;;;;;2.65;90.34;99575.56;5014576;28;20049;-80
2023/12/07 10:47:46;;;;;;;34.22;18.02;;;;;;;2.59;90.02;99576.22;5015226;28;20049;-78
2023/12/07 10:50:36;;;;;;;43.67;23.25;;;;;;;2.68;89.53;99577.03;5020993;28;20052;-76
2023/12/07 10:53:29;;;;;;;52.85;28.17;;;;;;;2.76;89.07;99580.44;5013954;28;20053;-77
2023/12/07 10:56:18;;;;;;;59.50;30.67;;;;;;;2.89;88.59;99577.25;5013615;28;20045;-78
2023/12/07 10:59:03;;;;;;;41.08;23.95;;;;;;;3.05;88.62;99573.75;5012555;28;20053;-78
2023/12/07 11:01:50;;;;;;;44.78;23.48;;;;;;;3.06;87.34;99571.94;5014868;28;20060;-77
2023/12/07 11:04:37;;;;;;;43.65;24.65;;;;;;;3.08;87.07;99573.41;5014251;28;20061;-78
2023/12/07 11:07:24;;;;;;;39.70;24.15;;;;;;;3.16;87.24;99575.16;5014194;28;20392;-79
2023/12/07 11:10:22;;;;;;;45.78;25.58;;;;;;;3.29;87.32;99553.56;5020182;28;20060;-80
2023/12/07 11:13:18;;;;;;;51.22;29.50;;;;;;;3.52;86.54;99570.16;5022809;28;20049;-80
2023/12/07 11:16:05;;;;;;;44.22;24.88;;;;;;;3.35;86.36;99568.63;5022348;28;20057;-78
2023/12/07 11:18:52;;;;;;;39.88;23.15;;;;;;;3.55;85.52;99564.56;5023151;28;20065;-77
2023/12/07 11:21:39;;;;;;;43.90;24.85;;;;;;;3.72;84.78;99563.41;5030049;28;20061;-80
2023/12/07 11:24:25;;;;;;;48.90;25.77;;;;;;;3.76;83.83;99566.53;5021740;28;20049;-80
2023/12/07 11:27:10;;;;;;;35.67;18.83;;;;;;;3.72;83.05;99573.94;5022716;28;20053;-78
2023/12/07 11:30:00;;;;;;;38.40;24.45;;;;;;;3.87;83.39;99573.16;5013189;28;20057;-78
2023/12/07 11:32:46;;;;;;;41.15;26.17;;;;;;;3.91;82.91;99566.56;5011630;28;20056;-78
2023/12/07 11:35:32;;;;;;;40.45;24.35;;;;;;;3.74;83.61;99567.69;5013058;28;20064;-78
2023/12/07 11:38:19;;;;;;;32.58;18.25;;;;;;;3.74;81.80;99565.06;5011599;28;20488;-80
2023/12/07 11:41:04;;;;;;;33.00;19.73;;;;;;;3.71;81.86;99574.94;5013755;28;20045;-80
2023/12/07 11:43:53;;;;;;;34.35;20.13;;;;;;;3.76;82.64;99560.44;5011854;28;20685;-79
2023/12/07 11:46:39;;;;;;;34.92;20.58;;;;;;;3.91;82.81;99574.44;5012858;28;20411;-77
2023/12/07 11:49:25;;;;;;;46.53;27.30;;;;;;;4.02;82.79;99571.38;5011106;28;20060;-79
2023/12/07 11:52:23;;;;;;;52.45;29.92;;;;;;;4.03;82.47;99572.22;5012295;28;20045;-79
2023/12/07 11:55:12;;;;;;;79.65;42.70;;;;;;;4.05;82.10;99571.03;5013223;28;20061;-80
2023/12/07 11:57:58;;;;;;;53.45;30.92;;;;;;;4.14;82.42;99569.97;5013138;28;20072;-79
2023/12/07 12:00:47;;;;;;;60.95;35.88;;;;;;;4.15;81.37;99566.31;5011927;28;20049;-77
2023/12/07 12:03:33;;;;;;;42.15;23.77;;;;;;;4.15;80.73;99568.97;5023934;28;20069;-77
2023/12/07 12:06:19;;;;;;;38.22;21.88;;;;;;;4.08;81.13;99559.34;5009828;28;20388;-76
2023/12/07 12:09:04;;;;;;;33.85;20.42;;;;;;;3.96;81.70;99555.50;5018600;28;20057;-77
2023/12/07 12:11:54;;;;;;;31.30;17.95;;;;;;;3.88;81.97;99559.03;5011332;28;20048;-77
2023/12/07 12:14:40;;;;;;;34.00;20.13;;;;;;;3.92;81.89;99562.94;5018434;28;20045;-79
2023/12/07 12:17:26;;;;;;;34.30;20.60;;;;;;;3.84;82.38;99560.38;5017311;28;20125;-77
2023/12/07 12:20:17;;;;;;;34.85;20.48;;;;;;;3.81;82.25;99553.66;5017649;28;20068;-78
2023/12/07 12:23:01;;;;;;;37.05;21.90;;;;;;;3.72;82.34;99566.03;5011276;28;20060;-78
2023/12/07 12:25:48;;;;;;;31.98;17.83;;;;;;;3.73;82.19;99566.88;5012580;28;20052;-78
2023/12/07 12:28:37;;;;;;;32.28;20.35;;;;;;;3.66;81.68;99564.13;5024556;28;20057;-80
2023/12/07 12:31:23;;;;;;;28.45;17.45;;;;;;;3.66;82.06;99566.75;5011563;28;20045;-79
2023/12/07 12:34:13;;;;;;;27.98;16.75;;;;;;;3.64;82.86;99568.75;5012613;28;20049;-79
2023/12/07 12:36:58;;;;;;;35.42;21.10;;;;;;;3.61;83.16;99574.38;5012455;28;20061;-79
2023/12/07 12:39:45;;;;;;;31.90;16.48;;;;;;;3.53;83.28;99563.09;5012129;28;20048;-78
2023/12/07 12:42:31;;;;;;;28.40;16.25;;;;;;;3.50;82.83;99566.06;5012272;28;20069;-79
2023/12/07 12:45:18;;;;;;;21.58;12.23;;;;;;;3.46;83.89;99576.13;5012809;28;20061;-76
2023/12/07 12:48:06;;;;;;;33.78;20.13;;;;;;;3.41;85.41;99575.81;5016155;28;20049;-79
2023/12/07 12:50:51;;;;;;;28.88;18.08;;;;;;;3.37;84.54;99577.97;5021793;28;20061;-77
2023/12/07 12:53:44;;;;;;;36.00;15.13;;;;;;;3.34;84.97;99577.50;5015798;28;20049;-77
2023/12/07 12:56:30;;;;;;;30.45;17.17;;;;;;;3.36;83.65;99575.53;5021349;28;20053;-79